Depesze METAR lotnisk w Polsce

METAR – format kodowanego raportu o pogodzie używany w meteorologii lotniczej i prognozie pogody. METAR jest akronimem od ang. Meteorological Aerodrome Report. Typowy METAR zawiera informację o temperaturze, ciśnieniu, temperaturze punktu rosy, sile i kierunku wiatru, opadzie, pokrywie chmur, wysokości podstawy chmur, widzialności, lecz może zawierać też inne informacje (np. stan dróg startowych).

Warszawa-Okęcie (EPWA)

METAR = EPWA 050030Z 11009KT CAVOK 13/08 Q0997 NOSIG

STACJA......... EPWA - Warszawa-Okęcie (WAW)
POMIAR......... Fri Jun 5, 02:30 CEST
WIATR.......... wschodni południowo-wschodni (ESE) z prędkością 17 km/h
WIDZIALNOŚĆ.... powyżej 10 kilometrów
CHMURY......... bezchmurne niebo
TEMPERATURA.... 13°C
T.PUNKTU ROSY.. 8°C
WILGOTNOŚĆ..... 72%
CIŚNIENIE...... 997 hPa
CIŚN.BEZWZGL... 984 hPa
PROGNOZA....... bez nagłych zmian w ciągu 2h

Sprawdź też: Prognoza pogody Warszawa

Warszawa-Modlin (EPMO)

METAR = EPMO 050030Z 08009KT CAVOK 10/09 Q0997 =

STACJA......... EPMO - Warszawa-Modlin (WMI)
POMIAR......... Fri Jun 5, 02:30 CEST
WIATR.......... wschodni (E) z prędkością 17 km/h
WIDZIALNOŚĆ.... powyżej 10 kilometrów
CHMURY......... bezchmurne niebo
TEMPERATURA.... 10°C
T.PUNKTU ROSY.. 9°C
WILGOTNOŚĆ..... 94%
T.ODCZUWALNA... 8°C
CIŚNIENIE...... 997 hPa
CIŚN.BEZWZGL... 985 hPa

Sprawdź też: Prognoza pogody Nowy Dwór Mazowiecki

Kraków-Balice (EPKK)

METAR = EPKK 050030Z 03005KT CAVOK 15/13 Q0996

STACJA......... EPKK - Kraków-Balice (KRK)
POMIAR......... Fri Jun 5, 02:30 CEST
WIATR.......... północno północno-wschodni (NNE) z prędkością 9 km/h
WIDZIALNOŚĆ.... powyżej 10 kilometrów
CHMURY......... bezchmurne niebo
TEMPERATURA.... 15°C
T.PUNKTU ROSY.. 13°C
WILGOTNOŚĆ..... 88%
CIŚNIENIE...... 996 hPa
CIŚN.BEZWZGL... 968 hPa

Sprawdź też: Prognoza pogody Kraków

Łódź-Lublinek (EPLL)

METAR = EPLL 050030Z 10007KT 060V140 CAVOK 15/09 Q0995

STACJA......... EPLL - Łódź-Lublinek (LCJ)
POMIAR......... Fri Jun 5, 02:30 CEST
WIATR.......... wschodni (E) z prędkością 13 km/h
WIDZIALNOŚĆ.... powyżej 10 kilometrów
CHMURY......... bezchmurne niebo
TEMPERATURA.... 15°C
T.PUNKTU ROSY.. 9°C
WILGOTNOŚĆ..... 68%
CIŚNIENIE...... 995 hPa
CIŚN.BEZWZGL... 973 hPa

Sprawdź też: Prognoza pogody Łódź

Wrocław-Strachowice (EPWR)


  

Sprawdź też: Prognoza pogody Wrocław

Katowice-Pyrzowice (EPKT)

METAR = EPKT 050030Z 13009KT CAVOK 15/12 Q0995

STACJA......... EPKT - Katowice-Pyrzowice (KTW)
POMIAR......... Fri Jun 5, 02:30 CEST
WIATR.......... południowo wschodni (SE) z prędkością 17 km/h
WIDZIALNOŚĆ.... powyżej 10 kilometrów
CHMURY......... bezchmurne niebo
TEMPERATURA.... 15°C
T.PUNKTU ROSY.. 12°C
WILGOTNOŚĆ..... 82%
CIŚNIENIE...... 995 hPa
CIŚN.BEZWZGL... 960 hPa

Sprawdź też: Prognoza pogody Katowice

Gdańsk (EPGD)

METAR = EPGD 050030Z 12010KT CAVOK 11/07 Q0996

STACJA......... EPGD - Gdańsk im. Lecha Wałęsy (GDN)
POMIAR......... Fri Jun 5, 02:30 CEST
WIATR.......... wschodni południowo-wschodni (ESE) z prędkością 19 km/h
WIDZIALNOŚĆ.... powyżej 10 kilometrów
CHMURY......... bezchmurne niebo
TEMPERATURA.... 11°C
T.PUNKTU ROSY.. 7°C
WILGOTNOŚĆ..... 77%
CIŚNIENIE...... 996 hPa
CIŚN.BEZWZGL... 978 hPa

Sprawdź też: Prognoza pogody Gdańsk

Poznań-Ławica (EPPO)

METAR = EPPO 050030Z 12005KT CAVOK 16/08 Q0993

STACJA......... EPPO - Poznań-Ławica (POZ)
POMIAR......... Fri Jun 5, 02:30 CEST
WIATR.......... wschodni południowo-wschodni (ESE) z prędkością 9 km/h
WIDZIALNOŚĆ.... powyżej 10 kilometrów
CHMURY......... bezchmurne niebo
TEMPERATURA.... 16°C
T.PUNKTU ROSY.. 8°C
WILGOTNOŚĆ..... 59%
CIŚNIENIE...... 993 hPa
CIŚN.BEZWZGL... 982 hPa

Sprawdź też: Prognoza pogody Poznań

Rzeszów-Jasionka (EPRZ)

METAR = EPRZ 050030Z 15003KT 070V200 CAVOK 16/13 Q0998

STACJA......... EPRZ - Rzeszów-Jasionka (RZE)
POMIAR......... Fri Jun 5, 02:30 CEST
WIATR.......... południowo południowo-wschodni (SSE) z prędkością 6 km/h
WIDZIALNOŚĆ.... powyżej 10 kilometrów
CHMURY......... bezchmurne niebo
TEMPERATURA.... 16°C
T.PUNKTU ROSY.. 13°C
WILGOTNOŚĆ..... 83%
CIŚNIENIE...... 998 hPa
CIŚN.BEZWZGL... 974 hPa

Sprawdź też: Prognoza pogody Rzeszów

Szczecin-Goleniów (EPSC)

METAR = EPSC 050030Z 14010KT 8000 -RA FEW002 BKN016 BKN020 13/11 Q0991

STACJA......... EPSC - Szczecin-Goleniów (SZZ)
POMIAR......... Fri Jun 5, 02:30 CEST
WIATR.......... południowo wschodni (SE) z prędkością 19 km/h
WIDZIALNOŚĆ.... 8000 metrów
WARUNKI........ słaby: deszcz 
CHMURY......... zachmurzenie średnie (5/8-7/8)
TEMPERATURA.... 13°C
T.PUNKTU ROSY.. 11°C
WILGOTNOŚĆ..... 88%
CIŚNIENIE...... 991 hPa
CIŚN.BEZWZGL... 985 hPa

Sprawdź też: Prognoza pogody Szczecin

Lublin-Świdnik (EPLB)

METAR = EPLB 050030Z 11006KT CAVOK 09/09 Q0999 =

STACJA......... EPLB - Lublin-Świdnik (LUZ)
POMIAR......... Fri Jun 5, 02:30 CEST
WIATR.......... wschodni południowo-wschodni (ESE) z prędkością 11 km/h
WIDZIALNOŚĆ.... powyżej 10 kilometrów
CHMURY......... bezchmurne niebo
TEMPERATURA.... 9°C
T.PUNKTU ROSY.. 9°C
WILGOTNOŚĆ..... 100%
T.ODCZUWALNA... 7°C
CIŚNIENIE...... 999 hPa
CIŚN.BEZWZGL... 975 hPa

Sprawdź też: Prognoza pogody Lublin

Bydgoszcz-Szwederowo (EPBY)

METAR = EPBY 050030Z 12012KT CAVOK 17/07 Q0994=

STACJA......... EPBY - Bydgoszcz-Szwederowo (BZG)
POMIAR......... Fri Jun 5, 02:30 CEST
WIATR.......... wschodni południowo-wschodni (ESE) z prędkością 22 km/h
WIDZIALNOŚĆ.... powyżej 10 kilometrów
CHMURY......... bezchmurne niebo
TEMPERATURA.... 17°C
T.PUNKTU ROSY.. 7°C
WILGOTNOŚĆ..... 52%
CIŚNIENIE...... 994 hPa
CIŚN.BEZWZGL... 986 hPa

Sprawdź też: Prognoza pogody Bydgoszcz

Zielona Góra-Babimost (EPZG)

METAR = EPZG 050030Z NIL=

STACJA......... EPZG - Zielona Góra-Babimost (IEG)
POMIAR......... Fri Jun 5, 02:30 CEST
DEPESZA........ brak aktualnej prognozy w treści depeszy

Sprawdź też: Prognoza pogody Zielona Góra

Szymany Olsztyn-Mazury (EPSY)

METAR = EPSY 050030Z NIL=

STACJA......... EPSY - Olsztyn-Mazury (SZY)
POMIAR......... Fri Jun 5, 02:30 CEST
DEPESZA........ brak aktualnej prognozy w treści depeszy

Sprawdź też: Prognoza pogody Olsztyn